Terminal Aerodrome Forecast
Issued by NWS

Home | Current Version | Previous Version | Text Only | Print | Product List | Glossary On
Versions: 1 2 3 4 5 6 7 8 9 10 11 12 13 14 15 16 17 18 19
000
FTUS43 KLSX 310500
TAFSUS
TAF
KSUS 310520Z 3106/0106 36011KT 5SM -DZ BR OVC007
      TEMPO 3106/3110 2SM -DZ BR
     FM311500 36008KT P6SM OVC015
     FM010100 04006KT P6SM OVC015=

USA.gov is the U.S. government's official web portal to all federal, state and local government web resources and services.